Time;durP1;ratioP1;P1;durP2;ratioP2;P2;SDS_P1;SDS_P2;PMS_P1;PMS_P2;Temp;Humidity;BMP_temperature;BMP_pressure;BME280_temperature;BME280_humidity;BME280_pressure;Samples;Min_cycle;Max_cycle;Signal;HPM_P1;HPM_P2
2022/04/23 00:02:09;;;;;;;9.85;7.82;;;14.60;62.10;;;;;;5074925;28;20521;-79
2022/04/23 00:04:36;;;;;;;15.43;8.85;;;14.70;61.80;;;;;;5075189;28;20033;-79
2022/04/23 00:07:02;;;;;;;11.15;7.88;;;14.70;61.80;;;;;;5076195;28;20028;-79
2022/04/23 00:09:27;;;;;;;12.48;8.52;;;14.70;61.80;;;;;;5057688;28;20044;-77
2022/04/23 00:11:55;;;;;;;15.77;8.85;;;14.80;61.20;;;;;;5055664;28;21240;-78
2022/04/23 00:14:21;;;;;;;14.77;8.52;;;14.90;61.20;;;;;;5055935;28;20112;-79
2022/04/23 00:16:50;;;;;;;15.40;8.88;;;14.90;61.00;;;;;;5055866;28;20013;-78
2022/04/23 00:19:20;;;;;;;12.02;7.72;;;14.80;61.30;;;;;;5054666;28;20411;-77
2022/04/23 00:21:46;;;;;;;13.10;8.90;;;14.80;61.10;;;;;;5055895;28;20120;-77
2022/04/23 00:24:12;;;;;;;11.75;7.80;;;14.90;60.90;;;;;;5055944;28;20032;-77
2022/04/23 00:26:40;;;;;;;13.02;8.35;;;14.80;60.80;;;;;;5055691;28;20032;-77
2022/04/23 00:29:05;;;;;;;14.90;8.32;;;14.90;60.50;;;;;;5055228;28;20052;-77
2022/04/23 00:31:31;;;;;;;12.98;8.38;;;14.90;60.40;;;;;;5055464;28;20033;-78
2022/04/23 00:33:57;;;;;;;13.38;7.70;;;15.00;60.10;;;;;;5071002;28;20036;-77
2022/04/23 00:36:26;;;;;;;13.32;7.30;;;15.00;59.90;;;;;;5054418;28;20555;-77
2022/04/23 00:38:53;;;;;;;11.32;7.78;;;15.00;60.00;;;;;;5073493;28;20495;-77
2022/04/23 00:44:07;;;;;;;13.20;7.68;;;14.90;59.80;;;;;;5075899;28;20030;-77
2022/04/23 00:46:33;;;;;;;12.27;8.50;;;14.90;59.80;;;;;;5070467;28;20507;-77
2022/04/23 00:48:59;;;;;;;10.63;7.10;;;14.90;59.70;;;;;;5074478;28;20033;-77
2022/04/23 00:51:29;;;;;;;8.85;7.13;;;15.00;59.50;;;;;;5074193;28;20070;-77
2022/04/23 00:53:56;;;;;;;12.50;7.93;;;15.10;58.90;;;;;;5075569;28;20062;-77
2022/04/23 00:56:23;;;;;;;11.15;6.97;;;15.10;58.90;;;;;;5069354;28;20037;-77
2022/04/23 00:58:51;;;;;;;14.38;7.50;;;15.00;58.90;;;;;;5055413;28;20163;-77
2022/04/23 01:01:18;;;;;;;15.20;7.45;;;15.00;58.80;;;;;;5074060;28;20009;-77
2022/04/23 01:03:44;;;;;;;9.93;7.50;;;15.00;58.80;;;;;;5055430;28;20021;-77
2022/04/23 01:06:13;;;;;;;11.18;7.75;;;15.00;58.90;;;;;;5065873;28;20032;-77
2022/04/23 01:08:39;;;;;;;10.60;7.22;;;15.00;58.70;;;;;;5055424;28;20036;-77
2022/04/23 01:11:05;;;;;;;12.95;7.60;;;15.00;58.60;;;;;;5055081;28;20021;-77
2022/04/23 01:13:32;;;;;;;16.20;7.65;;;14.90;58.60;;;;;;5054805;28;20093;-77
2022/04/23 01:16:07;;;;;;;10.15;7.53;;;14.90;58.80;;;;;;5075190;28;20028;-77
2022/04/23 01:18:34;;;;;;;15.07;7.43;;;15.00;58.60;;;;;;5075057;28;20476;-77
2022/04/23 01:21:05;;;;;;;10.80;7.05;;;15.00;58.30;;;;;;5072997;28;20024;-77
2022/04/23 01:23:31;;;;;;;9.90;6.85;;;15.00;58.10;;;;;;5054925;28;20025;-77
2022/04/23 01:25:58;;;;;;;9.43;6.35;;;15.10;58.00;;;;;;5073118;28;20379;-77
2022/04/23 01:28:25;;;;;;;11.60;7.45;;;15.00;58.10;;;;;;5074775;28;20130;-77
2022/04/23 01:30:53;;;;;;;12.43;7.32;;;14.90;58.00;;;;;;5064656;28;20031;-77
2022/04/23 01:33:19;;;;;;;13.38;6.53;;;15.00;57.90;;;;;;5073909;28;20032;-78
2022/04/23 01:35:45;;;;;;;14.02;7.07;;;15.00;58.00;;;;;;5054959;28;20031;-77
2022/04/23 01:38:13;;;;;;;13.90;7.35;;;15.00;57.70;;;;;;5054571;28;20029;-77
2022/04/23 01:40:40;;;;;;;11.30;6.75;;;14.90;57.70;;;;;;5070173;28;20467;-77
2022/04/23 01:43:06;;;;;;;11.35;6.65;;;14.90;57.70;;;;;;5052966;28;20105;-77
2022/04/23 01:45:31;;;;;;;15.25;6.25;;;14.80;57.50;;;;;;5054922;28;20070;-77
2022/04/23 01:47:57;;;;;;;9.98;6.32;;;14.80;57.80;;;;;;5064853;28;20035;-78
2022/04/23 01:50:25;;;;;;;9.43;6.22;;;14.80;58.00;;;;;;5075427;28;20024;-77
2022/04/23 01:52:51;;;;;;;11.57;6.70;;;14.70;58.20;;;;;;5077495;28;20032;-77
2022/04/23 01:55:17;;;;;;;10.48;6.72;;;14.80;57.80;;;;;;5070232;28;20056;-77
2022/04/23 01:57:42;;;;;;;13.40;7.28;;;14.80;57.80;;;;;;5058742;28;20035;-77
2022/04/23 02:00:11;;;;;;;10.57;7.22;;;14.80;57.60;;;;;;5067743;28;20395;-77
2022/04/23 02:02:37;;;;;;;11.65;7.13;;;14.90;57.60;;;;;;5071581;28;20028;-77
2022/04/23 02:05:06;;;;;;;11.05;6.72;;;14.90;57.60;;;;;;5058548;28;20021;-77
2022/04/23 02:07:36;;;;;;;12.83;6.73;;;14.80;57.70;;;;;;5058311;28;20491;-77
2022/04/23 02:10:03;;;;;;;9.82;5.88;;;14.80;57.80;;;;;;5073612;28;20068;-77
2022/04/23 02:12:29;;;;;;;10.52;7.07;;;14.80;57.80;;;;;;5058408;28;20479;-77
2022/04/23 02:14:55;;;;;;;11.63;6.63;;;14.80;58.10;;;;;;5058197;28;20029;-77
2022/04/23 02:17:20;;;;;;;13.40;7.68;;;14.80;58.00;;;;;;5057799;28;20085;-77
2022/04/23 02:19:46;;;;;;;11.02;6.40;;;14.80;57.70;;;;;;5056839;28;20025;-77
2022/04/23 02:22:12;;;;;;;11.52;7.53;;;14.80;57.80;;;;;;5058375;28;20040;-77
2022/04/23 02:24:41;;;;;;;11.32;7.97;;;14.70;57.90;;;;;;5058368;28;20024;-77
2022/04/23 02:27:06;;;;;;;8.20;6.07;;;14.60;58.40;;;;;;5058479;28;20511;-77
2022/04/23 02:29:32;;;;;;;10.55;7.43;;;14.60;58.50;;;;;;5058006;28;20103;-77
2022/04/23 02:31:57;;;;;;;11.48;6.90;;;14.50;58.70;;;;;;5058020;28;20036;-77
2022/04/23 02:34:23;;;;;;;13.93;7.47;;;14.50;58.70;;;;;;5057265;28;20068;-77
2022/04/23 02:36:49;;;;;;;18.65;8.43;;;14.40;58.90;;;;;;5057938;28;20060;-79
2022/04/23 02:39:14;;;;;;;14.82;7.40;;;14.30;59.30;;;;;;5057933;28;20058;-77
2022/04/23 02:41:40;;;;;;;12.05;7.85;;;14.30;59.40;;;;;;5060624;28;20029;-77
2022/04/23 02:44:06;;;;;;;11.48;7.38;;;14.30;59.30;;;;;;5078062;28;20059;-77
2022/04/23 02:46:31;;;;;;;14.15;6.90;;;14.30;59.40;;;;;;5077889;28;20016;-77
2022/04/23 02:48:58;;;;;;;12.90;8.18;;;14.20;59.50;;;;;;5077659;28;20410;-77
2022/04/23 02:51:24;;;;;;;12.68;7.20;;;14.20;59.70;;;;;;5076493;28;20024;-77
2022/04/23 02:53:49;;;;;;;13.65;7.28;;;14.20;59.60;;;;;;5077173;28;20035;-77
2022/04/23 02:56:16;;;;;;;14.77;8.52;;;14.10;59.70;;;;;;5075340;28;20035;-77
2022/04/23 02:58:45;;;;;;;13.43;7.78;;;14.10;59.80;;;;;;5057504;28;20032;-78
2022/04/23 03:01:10;;;;;;;14.05;8.23;;;14.00;60.10;;;;;;5076791;28;20028;-77
2022/04/23 03:03:42;;;;;;;12.48;8.40;;;14.10;59.90;;;;;;5076142;28;20111;-77
2022/04/23 03:06:08;;;;;;;12.57;7.45;;;14.10;59.80;;;;;;5077486;28;20548;-77
2022/04/23 03:08:41;;;;;;;12.57;8.43;;;14.10;59.80;;;;;;5061582;28;20049;-77
2022/04/23 03:11:07;;;;;;;13.40;8.30;;;14.00;59.90;;;;;;5056869;28;20029;-77
2022/04/23 03:13:35;;;;;;;15.77;8.15;;;14.00;60.00;;;;;;5057284;28;20144;-77
2022/04/23 03:16:01;;;;;;;12.10;8.18;;;14.10;59.80;;;;;;5057267;28;20392;-77
2022/04/23 03:18:27;;;;;;;18.77;8.77;;;14.10;59.80;;;;;;5071632;28;20032;-77
2022/04/23 03:20:53;;;;;;;14.85;8.10;;;14.10;59.70;;;;;;5075882;28;20024;-77
2022/04/23 03:23:19;;;;;;;15.30;9.15;;;14.00;59.60;;;;;;5077228;28;20032;-77
2022/04/23 03:25:45;;;;;;;15.98;9.18;;;14.00;59.60;;;;;;5062220;28;20328;-77
2022/04/23 03:28:13;;;;;;;13.88;8.73;;;14.00;59.80;;;;;;5056604;28;20115;-77
2022/04/23 03:30:40;;;;;;;15.07;9.20;;;14.00;59.80;;;;;;5057030;28;20100;-77
2022/04/23 03:33:05;;;;;;;13.80;8.45;;;14.00;59.70;;;;;;5056706;28;20025;-77
2022/04/23 03:35:31;;;;;;;12.98;8.52;;;14.00;59.70;;;;;;5059168;28;20075;-77
2022/04/23 03:37:58;;;;;;;13.18;8.73;;;14.00;60.00;;;;;;5076927;28;20032;-79
2022/04/23 03:40:24;;;;;;;16.33;9.38;;;13.90;59.90;;;;;;5061460;28;20055;-77
2022/04/23 03:42:50;;;;;;;16.50;9.55;;;13.90;59.90;;;;;;5063631;28;20020;-77
2022/04/23 03:45:18;;;;;;;10.90;7.65;;;13.90;60.20;;;;;;5076017;28;20021;-77
2022/04/23 03:47:46;;;;;;;15.85;9.15;;;14.00;60.30;;;;;;5076648;28;20088;-77
2022/04/23 03:50:13;;;;;;;16.20;8.48;;;13.90;60.10;;;;;;5076769;28;20177;-77
2022/04/23 03:52:39;;;;;;;15.05;9.07;;;13.90;60.10;;;;;;5075301;28;20021;-77
2022/04/23 03:55:15;;;;;;;;;;;;;;;;;;;;;
2022/04/23 03:57:49;;;;;;;11.55;7.97;;;13.90;60.10;;;;;;5076481;28;20417;-77
2022/04/23 04:00:16;;;;;;;15.43;9.05;;;13.90;60.30;;;;;;5065994;28;20033;-77
2022/04/23 04:02:44;;;;;;;15.35;9.85;;;13.80;60.40;;;;;;5055857;28;20578;-77
2022/04/23 04:05:10;;;;;;;14.15;9.32;;;13.80;60.50;;;;;;5056224;28;20025;-77
2022/04/23 04:07:43;;;;;;;15.32;8.80;;;13.80;60.70;;;;;;5056237;28;20033;-77
2022/04/23 04:10:11;;;;;;;15.55;9.85;;;13.80;60.60;;;;;;5056373;28;20089;-77
2022/04/23 04:12:39;;;;;;;17.60;9.18;;;13.80;60.80;;;;;;5055541;28;20036;-77
2022/04/23 04:15:07;;;;;;;14.63;9.27;;;13.70;60.50;;;;;;5056209;28;20033;-77
2022/04/23 04:17:34;;;;;;;14.93;10.07;;;13.70;60.70;;;;;;5055811;28;20025;-77
2022/04/23 04:20:00;;;;;;;14.35;8.77;;;13.80;60.60;;;;;;5055485;28;20037;-77
2022/04/23 04:22:26;;;;;;;15.20;8.98;;;13.70;60.90;;;;;;5055828;28;20049;-77
2022/04/23 04:24:51;;;;;;;13.88;8.80;;;13.70;61.00;;;;;;5055806;28;20028;-77
2022/04/23 04:27:17;;;;;;;17.10;9.93;;;13.70;60.90;;;;;;5055732;28;20029;-77
2022/04/23 04:29:43;;;;;;;18.45;9.93;;;13.80;60.60;;;;;;5055490;28;20057;-77
2022/04/23 04:32:09;;;;;;;15.23;9.85;;;13.70;61.00;;;;;;5055761;28;20450;-77
2022/04/23 04:34:35;;;;;;;19.90;11.27;;;13.80;60.60;;;;;;5054419;28;20563;-77
2022/04/23 04:37:08;;;;;;;14.55;9.60;;;13.70;60.80;;;;;;5055793;28;20490;-77
2022/04/23 04:39:36;;;;;;;15.95;9.43;;;13.80;60.50;;;;;;5055187;28;20527;-77
2022/04/23 04:42:02;;;;;;;15.15;9.15;;;13.80;60.60;;;;;;5053810;28;20025;-77
2022/04/23 04:44:28;;;;;;;16.40;9.93;;;13.90;60.70;;;;;;5059410;28;20809;-77
2022/04/23 04:46:56;;;;;;;14.38;9.73;;;13.90;61.10;;;;;;5074039;28;20024;-77
2022/04/23 04:49:22;;;;;;;16.38;9.82;;;13.80;61.20;;;;;;5075991;28;20371;-77
2022/04/23 04:51:49;;;;;;;15.45;10.25;;;13.90;61.10;;;;;;5075384;28;20195;-77
2022/04/23 04:54:17;;;;;;;16.45;9.73;;;13.90;61.00;;;;;;5070581;28;20040;-77
2022/04/23 04:56:44;;;;;;;15.90;9.88;;;13.90;60.90;;;;;;5055411;28;20025;-76
2022/04/23 04:59:10;;;;;;;15.48;9.85;;;13.90;60.60;;;;;;5057594;28;20029;-77
2022/04/23 05:01:36;;;;;;;15.57;9.38;;;13.90;60.30;;;;;;5075316;28;20043;-77
2022/04/23 05:04:02;;;;;;;17.23;10.05;;;13.90;60.40;;;;;;5069638;28;20029;-77
2022/04/23 05:06:28;;;;;;;13.20;9.73;;;13.90;60.60;;;;;;5075081;28;20032;-77
2022/04/23 05:08:53;;;;;;;16.85;10.55;;;13.90;60.30;;;;;;5071636;28;20090;-78
2022/04/23 05:11:19;;;;;;;18.75;10.93;;;14.00;60.40;;;;;;5060283;28;20024;-78
2022/04/23 05:13:45;;;;;;;16.08;9.23;;;13.90;60.40;;;;;;5075199;28;20846;-78
2022/04/23 05:16:10;;;;;;;15.98;10.60;;;13.90;60.10;;;;;;5073589;28;20119;-78
2022/04/23 05:18:36;;;;;;;16.95;10.27;;;13.90;60.40;;;;;;5060337;28;20119;-77
2022/04/23 05:21:02;;;;;;;17.15;9.68;;;13.90;60.50;;;;;;5068512;28;20054;-78
2022/04/23 05:23:28;;;;;;;19.75;10.80;;;13.90;60.50;;;;;;5069181;28;20025;-77
2022/04/23 05:25:55;;;;;;;14.50;8.57;;;13.90;60.30;;;;;;5054781;28;20761;-77
2022/04/23 05:28:21;;;;;;;17.10;10.77;;;13.80;60.40;;;;;;5054809;28;20107;-78
2022/04/23 05:30:46;;;;;;;14.50;9.13;;;13.80;60.70;;;;;;5057972;28;20021;-78
2022/04/23 05:33:12;;;;;;;12.60;9.05;;;13.80;60.70;;;;;;5054940;28;20025;-77
2022/04/23 05:35:38;;;;;;;14.93;9.60;;;13.90;60.80;;;;;;5054669;28;20113;-77
2022/04/23 05:38:05;;;;;;;17.70;9.95;;;14.00;60.30;;;;;;5068372;28;20086;-77
2022/04/23 05:40:31;;;;;;;16.08;10.02;;;14.00;60.00;;;;;;5073594;28;20028;-78
2022/04/23 05:43:00;;;;;;;14.45;9.70;;;14.00;59.80;;;;;;5074860;28;20025;-84
2022/04/23 05:45:27;;;;;;;20.08;10.77;;;14.10;59.70;;;;;;5059394;28;20064;-80
2022/04/23 06:06:22;;;;;;;18.67;10.38;;;13.00;63.70;;;;;;5096477;27;20554;-81
2022/04/23 06:08:48;;;;;;;14.98;9.57;;;13.10;63.50;;;;;;5053713;28;20769;-80
2022/04/23 06:11:14;;;;;;;21.08;10.23;;;13.30;63.30;;;;;;5069355;28;20115;-81
2022/04/23 06:13:39;;;;;;;12.48;9.13;;;13.60;62.40;;;;;;5071298;28;20027;-81
2022/04/23 06:16:05;;;;;;;15.68;10.10;;;13.90;61.70;;;;;;5068027;28;20028;-80
2022/04/23 06:18:31;;;;;;;12.93;9.77;;;14.20;60.70;;;;;;5055882;28;20035;-78
2022/04/23 06:20:56;;;;;;;16.95;10.02;;;14.30;60.30;;;;;;5068414;28;20035;-81
2022/04/23 06:23:22;;;;;;;17.63;10.15;;;14.50;60.10;;;;;;5070585;28;20027;-82
2022/04/23 06:25:48;;;;;;;19.08;9.70;;;14.60;59.50;;;;;;5069138;28;20124;-81
2022/04/23 06:28:13;;;;;;;12.93;9.32;;;14.60;59.80;;;;;;5068586;28;20523;-83
2022/04/23 06:30:39;;;;;;;11.55;9.07;;;14.70;59.80;;;;;;5069611;28;20024;-82
2022/04/23 06:33:05;;;;;;;17.15;10.15;;;14.70;59.40;;;;;;5070088;28;20060;-80
2022/04/23 06:35:31;;;;;;;15.82;9.75;;;14.60;59.80;;;;;;5067652;28;20146;-80
2022/04/23 06:37:57;;;;;;;16.13;10.95;;;14.80;59.50;;;;;;5070340;28;20127;-83
2022/04/23 06:40:23;;;;;;;18.73;10.57;;;14.80;59.40;;;;;;5069170;28;20032;-81
2022/04/23 06:42:49;;;;;;;15.20;10.40;;;14.90;59.00;;;;;;5071038;28;20033;-79
2022/04/23 06:45:14;;;;;;;18.13;11.18;;;15.00;59.30;;;;;;5070702;28;20039;-79
2022/04/23 06:52:18;;;;;;;15.27;10.48;;;15.00;58.80;;;;;;5127836;27;20367;-81
2022/04/23 06:54:44;;;;;;;13.30;9.43;;;14.90;59.30;;;;;;5111948;28;20024;-84
2022/04/23 06:57:10;;;;;;;16.10;10.23;;;14.90;59.40;;;;;;5109680;28;20040;-86
2022/04/23 06:59:35;;;;;;;17.52;10.75;;;14.90;59.30;;;;;;5108677;28;20028;-86
2022/04/23 07:02:02;;;;;;;17.55;10.18;;;15.00;58.70;;;;;;5120674;28;20031;-84
2022/04/23 07:04:31;;;;;;;16.85;9.90;;;15.00;58.70;;;;;;5111953;28;20046;-86
2022/04/23 07:06:57;;;;;;;22.20;10.10;;;15.10;58.60;;;;;;5101603;28;20024;-81
2022/04/23 07:09:23;;;;;;;17.60;10.45;;;15.10;58.30;;;;;;5108287;28;20030;-88
2022/04/23 07:11:49;;;;;;;15.13;9.77;;;15.30;58.20;;;;;;5107091;28;20115;-84
2022/04/23 07:14:14;;;;;;;15.68;9.90;;;15.40;57.50;;;;;;5119601;27;20477;-86
2022/04/23 07:16:41;;;;;;;13.40;10.10;;;15.60;57.40;;;;;;5107446;28;20483;-85
2022/04/23 07:19:07;;;;;;;15.57;9.50;;;15.70;57.10;;;;;;5105965;28;20020;-84
2022/04/23 07:21:34;;;;;;;13.73;9.57;;;15.80;57.20;;;;;;5104860;28;20032;-84
2022/04/23 07:24:04;;;;;;;18.23;10.38;;;16.00;56.20;;;;;;5109383;28;20466;-84
2022/04/23 07:26:31;;;;;;;15.23;10.38;;;16.20;55.90;;;;;;5109316;28;20024;-85
2022/04/23 07:28:57;;;;;;;13.82;9.73;;;16.40;55.10;;;;;;5109755;28;20116;-84
2022/04/23 07:31:23;;;;;;;15.25;10.85;;;16.50;53.70;;;;;;5110030;28;20028;-83
2022/04/23 07:39:18;;;;;;;13.15;9.45;;;16.50;53.60;;;;;;5108300;28;20038;-84
2022/04/23 07:41:46;;;;;;;11.48;8.43;;;16.60;53.50;;;;;;5110249;28;20035;-84
2022/04/23 07:44:11;;;;;;;16.25;10.30;;;16.40;53.70;;;;;;5098683;28;20039;-83
2022/04/23 07:46:39;;;;;;;13.90;9.52;;;16.40;54.20;;;;;;5094961;28;20028;-83
2022/04/23 07:49:05;;;;;;;13.75;10.27;;;16.30;54.50;;;;;;5091519;28;20047;-83
2022/04/23 07:51:31;;;;;;;15.00;9.98;;;16.30;54.30;;;;;;5099100;28;20143;-87
2022/04/23 07:53:56;;;;;;;14.45;9.98;;;16.40;54.60;;;;;;5121787;28;20058;-87
2022/04/23 07:56:22;;;;;;;12.52;8.95;;;16.40;54.40;;;;;;5124865;28;20392;-87
2022/04/23 07:58:49;;;;;;;16.05;10.18;;;16.40;54.70;;;;;;5130031;28;20026;-86
2022/04/23 08:01:14;;;;;;;14.00;9.30;;;16.40;54.90;;;;;;5124584;28;20034;-85
2022/04/23 08:03:41;;;;;;;16.83;10.00;;;16.60;54.80;;;;;;5077826;28;20024;-85
2022/04/23 08:06:10;;;;;;;12.90;9.18;;;16.70;54.20;;;;;;5077775;28;20092;-86
2022/04/23 08:08:36;;;;;;;14.55;10.02;;;17.00;54.00;;;;;;5077660;28;20110;-88
2022/04/23 08:11:02;;;;;;;15.60;9.95;;;18.50;51.30;;;;;;5094922;28;20481;-80
2022/04/23 08:13:28;;;;;;;13.10;9.10;;;19.00;49.30;;;;;;5091249;28;20020;-87
2022/04/23 08:15:56;;;;;;;11.77;8.30;;;20.40;46.60;;;;;;5094840;28;20431;-87
2022/04/23 08:18:22;;;;;;;10.40;8.45;;;20.90;45.00;;;;;;5094342;28;20081;-88
2022/04/23 08:20:48;;;;;;;12.48;8.75;;;21.50;43.60;;;;;;5076868;28;20042;-88
2022/04/23 08:23:16;;;;;;;10.15;8.32;;;22.40;42.40;;;;;;5077605;28;20020;-87
2022/04/23 08:25:42;;;;;;;10.18;8.30;;;22.00;42.20;;;;;;5075561;28;20460;-88
2022/04/23 08:30:52;;;;;;;12.68;8.70;;;22.30;42.20;;;;;;5076995;28;20047;-88
2022/04/23 08:33:18;;;;;;;12.35;8.85;;;21.70;42.90;;;;;;5077142;28;20024;-88
2022/04/23 08:35:43;;;;;;;10.95;8.43;;;21.20;42.90;;;;;;5078625;28;20506;-87
2022/04/23 08:38:10;;;;;;;13.10;9.27;;;20.50;43.60;;;;;;5085741;28;20440;-87
2022/04/23 08:40:38;;;;;;;11.68;9.10;;;20.50;44.20;;;;;;5076781;28;20025;-87
2022/04/23 08:43:06;;;;;;;13.40;9.32;;;21.40;43.50;;;;;;5083007;28;20056;-87
2022/04/23 08:45:35;;;;;;;11.40;8.95;;;22.40;41.50;;;;;;5082930;28;20032;-89
2022/04/23 08:48:06;;;;;;;14.50;9.88;;;23.20;39.40;;;;;;5098087;28;20026;-85
2022/04/23 08:50:36;;;;;;;13.55;9.40;;;22.90;39.60;;;;;;5096143;28;20116;-88
2022/04/23 08:53:15;;;;;;;12.98;9.02;;;23.20;39.10;;;;;;5086513;28;20081;-89
2022/04/23 08:55:44;;;;;;;;;;;23.40;37.90;;;;;;5088606;28;20035;-89
2022/04/23 08:58:14;;;;;;;10.80;8.57;;;23.80;36.70;;;;;;5091156;28;20397;-90
2022/04/23 09:00:39;;;;;;;;;;;24.60;36.60;;;;;;5084223;28;20027;-92
2022/04/23 09:03:05;;;;;;;12.00;9.10;;;24.60;34.70;;;;;;5090105;28;19911;-92
2022/04/23 09:05:31;;;;;;;14.15;11.82;;;24.30;36.00;;;;;;5094607;28;20024;-91
2022/04/23 09:07:57;;;;;;;14.18;10.35;;;23.80;36.80;;;;;;5088861;28;20024;-92
2022/04/23 09:11:02;;;;;;;12.07;8.93;;;24.30;36.90;;;;;;5075604;28;20021;-91
2022/04/23 09:13:29;;;;;;;11.70;9.73;;;24.50;35.90;;;;;;5050566;28;20532;-91
2022/04/23 09:24:48;;;;;;;10.52;9.43;;;25.30;34.40;;;;;;5076632;28;20039;-91
2022/04/23 09:27:14;;;;;;;11.32;9.90;;;25.30;35.60;;;;;;5077046;28;20390;-93
2022/04/23 09:29:42;;;;;;;14.27;10.15;;;24.10;35.80;;;;;;5085036;28;20043;-91
2022/04/23 09:32:14;;;;;;;10.98;9.32;;;23.90;37.20;;;;;;5076478;28;20025;-92
2022/04/23 09:34:41;;;;;;;12.63;10.45;;;23.70;37.20;;;;;;5075850;28;20024;-92
2022/04/23 09:37:08;;;;;;;14.45;9.63;;;23.20;38.60;;;;;;5076671;28;20024;-91
2022/04/23 09:39:35;;;;;;;12.10;8.55;;;23.50;37.90;;;;;;5075831;28;20049;-92
2022/04/23 09:42:15;;;;;;;14.10;9.48;;;23.40;38.70;;;;;;5087211;28;20103;-92
2022/04/23 09:44:42;;;;;;;15.02;10.35;;;23.20;38.20;;;;;;5088416;28;20493;-88
2022/04/23 09:47:08;;;;;;;13.30;9.48;;;22.70;39.40;;;;;;5094487;28;20016;-90
2022/04/23 09:49:34;;;;;;;12.85;9.60;;;22.60;39.30;;;;;;5090466;28;20045;-89
2022/04/23 09:52:02;;;;;;;12.32;9.45;;;22.60;39.70;;;;;;5094808;28;20070;-89
2022/04/23 09:54:29;;;;;;;13.05;10.07;;;22.30;39.90;;;;;;5075647;28;20057;-90
2022/04/23 09:56:58;;;;;;;12.75;9.00;;;22.30;40.60;;;;;;5074423;28;20123;-89
2022/04/23 09:59:24;;;;;;;12.98;9.50;;;22.40;40.70;;;;;;5081093;28;20030;-90
2022/04/23 10:01:50;;;;;;;14.15;9.88;;;22.60;40.90;;;;;;5093670;28;20051;-87
2022/04/23 10:04:24;;;;;;;12.55;9.23;;;22.60;40.30;;;;;;5083643;28;20117;-82
2022/04/23 10:06:51;;;;;;;13.35;9.38;;;22.40;41.30;;;;;;5091164;28;20036;-79
2022/04/23 10:09:21;;;;;;;12.40;9.80;;;22.60;40.50;;;;;;5092915;28;20027;-80
2022/04/23 10:11:49;;;;;;;;;;;22.60;40.70;;;;;;5092474;28;20036;-81
2022/04/23 10:14:19;;;;;;;12.07;8.52;;;22.80;41.10;;;;;;5094666;28;19904;-81
2022/04/23 10:16:48;;;;;;;11.35;8.95;;;22.80;41.20;;;;;;5095204;28;20035;-81
2022/04/23 10:19:15;;;;;;;11.90;8.57;;;22.90;40.80;;;;;;5074811;28;20032;-81
2022/04/23 10:22:14;;;;;;;12.98;8.65;;;22.90;40.90;;;;;;5074496;28;20403;-81
2022/04/23 10:25:10;;;;;;;15.07;9.70;;;23.10;40.20;;;;;;5075774;28;20145;-81
2022/04/23 10:27:37;;;;;;;12.30;9.57;;;23.10;39.20;;;;;;5084266;28;20873;-81
2022/04/23 10:30:06;;;;;;;13.10;9.10;;;23.30;40.40;;;;;;5081507;28;20016;-81
2022/04/23 10:32:39;;;;;;;12.48;9.60;;;23.30;40.00;;;;;;5091420;28;20008;-81
2022/04/23 10:35:17;;;;;;;10.88;9.23;;;23.50;39.90;;;;;;5087053;28;20023;-80
2022/04/23 10:37:44;;;;;;;12.02;9.00;;;23.30;38.50;;;;;;5087747;28;20477;-78
2022/04/23 10:40:16;;;;;;;10.75;8.73;;;23.20;39.40;;;;;;5083620;28;20056;-84
2022/04/23 10:43:04;;;;;;;9.82;8.18;;;23.00;39.10;;;;;;5094786;28;20028;-83
2022/04/23 10:45:34;;;;;;;11.82;8.30;;;23.30;39.60;;;;;;5089450;28;20028;-85
2022/04/23 10:48:43;;;;;;;11.23;8.68;;;23.20;37.90;;;;;;5088608;28;20394;-84
2022/04/23 10:51:10;;;;;;;11.95;9.27;;;23.30;39.40;;;;;;5070476;28;20052;-83
2022/04/23 10:53:41;;;;;;;11.23;9.00;;;23.30;39.30;;;;;;5090825;28;20090;-92
2022/04/23 10:56:12;;;;;;;13.85;8.93;;;23.20;39.00;;;;;;5090192;28;20038;-84
2022/04/23 10:58:38;;;;;;;12.70;9.07;;;23.30;39.30;;;;;;5092840;28;20020;-86
2022/04/23 11:01:23;;;;;;;11.23;9.10;;;23.30;39.10;;;;;;5093123;28;20028;-80
2022/04/23 11:03:56;;;;;;;10.77;8.88;;;23.30;39.30;;;;;;5082203;28;20127;-88
2022/04/23 11:12:36;;;;;;;11.50;7.95;;;23.60;38.60;;;;;;5079725;28;20043;-85
2022/04/23 11:15:15;;;;;;;8.63;7.70;;;23.60;40.30;;;;;;5095149;28;20444;-78
2022/04/23 11:17:53;;;;;;;10.80;7.47;;;23.50;38.70;;;;;;5090830;28;20828;-76
2022/04/23 11:20:27;;;;;;;38.72;14.57;;;23.40;39.00;;;;;;5094486;28;20043;-78
2022/04/23 11:22:53;;;;;;;9.73;7.03;;;23.50;39.90;;;;;;5094320;28;20386;-76
2022/04/23 11:25:19;;;;;;;11.13;7.00;;;23.60;38.70;;;;;;5092327;28;20038;-74
2022/04/23 11:27:48;;;;;;;10.57;6.93;;;23.50;39.40;;;;;;5100839;28;20478;-76
2022/04/23 11:30:14;;;;;;;8.43;6.45;;;23.40;40.00;;;;;;5095319;28;20107;-77
2022/04/23 11:32:39;;;;;;;10.70;7.50;;;23.30;39.70;;;;;;5081865;28;20060;-76
2022/04/23 11:35:07;;;;;;;9.23;7.25;;;23.30;39.80;;;;;;5074743;28;20024;-76
2022/04/23 11:37:34;;;;;;;8.60;6.13;;;23.60;40.60;;;;;;5075788;28;20123;-75
2022/04/23 11:40:07;;;;;;;10.65;5.57;;;23.50;39.40;;;;;;5077536;28;20025;-76
2022/04/23 11:42:51;;;;;;;8.57;6.68;;;23.50;39.40;;;;;;5078396;28;20025;-76
2022/04/23 11:45:18;;;;;;;9.27;7.25;;;23.40;40.30;;;;;;5078565;28;20024;-76
2022/04/23 11:47:44;;;;;;;6.65;5.32;;;23.20;39.90;;;;;;5087361;28;20023;-77
2022/04/23 11:50:15;;;;;;;7.80;5.57;;;23.10;41.50;;;;;;5097217;28;20407;-75
2022/04/23 11:52:42;;;;;;;7.10;4.40;;;23.00;41.60;;;;;;5086333;28;20064;-77
2022/04/23 11:55:22;;;;;;;8.00;5.25;;;22.90;39.70;;;;;;5078259;28;20024;-77
2022/04/23 11:57:54;;;;;;;7.35;5.35;;;22.50;40.20;;;;;;5097205;28;20623;-79
2022/04/23 12:00:20;;;;;;;8.93;6.03;;;22.30;41.10;;;;;;5097701;28;20016;-80
2022/04/23 12:02:46;;;;;;;5.85;5.15;;;22.70;41.00;;;;;;5098161;28;20043;-77
2022/04/23 12:05:12;;;;;;;7.35;5.20;;;23.00;40.90;;;;;;5095582;28;20024;-77
2022/04/23 12:07:37;;;;;;;10.13;5.93;;;23.40;40.20;;;;;;5088623;28;20081;-78
2022/04/23 12:10:03;;;;;;;7.65;5.65;;;23.80;40.20;;;;;;5089814;28;20024;-78
2022/04/23 12:12:33;;;;;;;8.90;5.55;;;23.90;38.80;;;;;;5091366;28;20020;-78
2022/04/23 12:15:04;;;;;;;;;;;23.60;39.30;;;;;;5089677;28;20028;-78
2022/04/23 12:17:45;;;;;;;7.07;5.47;;;23.70;39.70;;;;;;5095551;28;19904;-78
2022/04/23 12:20:12;;;;;;;6.90;4.93;;;23.70;40.80;;;;;;5095349;28;20031;-78
2022/04/23 12:22:39;;;;;;;6.65;5.30;;;23.50;39.00;;;;;;5092806;28;20024;-78
2022/04/23 12:25:18;;;;;;;6.35;3.75;;;23.70;39.80;;;;;;5092134;28;20067;-78
2022/04/23 12:42:10;;;;;;;9.32;5.63;;;22.10;43.80;;;;;;5093927;28;20063;-78
2022/04/23 12:44:42;;;;;;;7.43;5.20;;;22.00;44.20;;;;;;5093388;28;20027;-78
2022/04/23 12:47:10;;;;;;;6.57;4.88;;;22.20;45.40;;;;;;5094311;28;20471;-78
2022/04/23 12:49:52;;;;;;;5.45;4.45;;;22.20;45.20;;;;;;5093435;28;20032;-78
2022/04/23 12:52:21;;;;;;;7.55;5.30;;;22.00;45.70;;;;;;5093139;28;20047;-78
2022/04/23 12:55:22;;;;;;;7.40;5.60;;;22.00;46.70;;;;;;5094290;28;20040;-78
2022/04/23 12:57:50;;;;;;;6.78;4.68;;;22.00;46.40;;;;;;5095295;28;20024;-77
2022/04/23 13:00:19;;;;;;;8.95;4.45;;;21.80;46.30;;;;;;5093782;28;20036;-77
2022/04/23 13:02:53;;;;;;;7.88;5.45;;;21.70;46.10;;;;;;5089855;28;20027;-79
2022/04/23 13:05:19;;;;;;;8.55;5.60;;;21.70;46.40;;;;;;5093916;28;20027;-77
2022/04/23 13:10:30;;;;;;;6.15;4.55;;;21.80;46.10;;;;;;5090533;28;20026;-77
2022/04/23 13:12:55;;;;;;;6.53;4.53;;;21.90;45.50;;;;;;5091240;28;20095;-76
2022/04/23 13:15:22;;;;;;;5.53;4.30;;;21.90;45.50;;;;;;5091893;28;20069;-77
2022/04/23 13:17:47;;;;;;;5.57;4.55;;;22.00;45.30;;;;;;5094567;28;20024;-77
2022/04/23 13:20:15;;;;;;;7.20;4.63;;;22.20;45.30;;;;;;5090043;28;20455;-77
2022/04/23 13:22:43;;;;;;;5.10;4.40;;;22.20;45.10;;;;;;5095149;28;20051;-77
2022/04/23 13:25:11;;;;;;;5.75;4.30;;;22.20;45.50;;;;;;5092756;28;20043;-76
2022/04/23 13:27:36;;;;;;;7.28;4.72;;;22.10;45.90;;;;;;5095676;28;20020;-79
2022/04/23 13:30:03;;;;;;;7.40;4.93;;;21.90;45.80;;;;;;5086117;28;20030;-79
2022/04/23 13:32:31;;;;;;;6.95;4.30;;;21.70;46.10;;;;;;5092001;28;20024;-80
2022/04/23 13:34:57;;;;;;;5.90;4.53;;;21.60;46.50;;;;;;5093441;28;20023;-80
2022/04/23 13:37:23;;;;;;;7.35;4.78;;;21.50;46.80;;;;;;5090269;28;20079;-80
2022/04/23 13:39:48;;;;;;;5.88;4.35;;;21.10;47.60;;;;;;5095589;28;20024;-80
2022/04/23 13:42:14;;;;;;;6.75;5.22;;;20.90;47.60;;;;;;5093898;28;20020;-79
2022/04/23 13:44:41;;;;;;;7.38;4.70;;;20.80;49.00;;;;;;5091383;28;20115;-79
2022/04/23 13:47:07;;;;;;;5.75;4.53;;;21.20;48.80;;;;;;5086270;28;20110;-79
2022/04/23 13:49:33;;;;;;;9.48;4.47;;;21.50;48.20;;;;;;5092990;28;20478;-78
2022/04/23 13:52:00;;;;;;;5.40;4.38;;;21.70;48.30;;;;;;5087152;28;20526;-78